sensor_id;sensor_type;location;lat;lon;timestamp;pressure;altitude;pressure_sealevel;temperature;humidity
6345;BME280;3205;42.666;23.264;2023-06-26T00:00:34;94163.63;;;21.51;100.00
6345;BME280;3205;42.666;23.264;2023-06-26T00:03:02;94157.47;;;21.51;100.00
6345;BME280;3205;42.666;23.264;2023-06-26T00:05:28;94146.41;;;21.45;100.00
6345;BME280;3205;42.666;23.264;2023-06-26T00:07:55;94153.59;;;21.55;100.00
6345;BME280;3205;42.666;23.264;2023-06-26T00:10:22;94154.38;;;21.52;100.00
6345;BME280;3205;42.666;23.264;2023-06-26T00:12:49;94154.44;;;21.49;100.00
6345;BME280;3205;42.666;23.264;2023-06-26T00:15:15;94153.59;;;21.52;100.00
6345;BME280;3205;42.666;23.264;2023-06-26T00:17:41;94157.44;;;21.54;100.00
6345;BME280;3205;42.666;23.264;2023-06-26T00:20:08;94153.66;;;21.48;100.00
6345;BME280;3205;42.666;23.264;2023-06-26T00:22:34;94154.53;;;21.42;100.00
6345;BME280;3205;42.666;23.264;2023-06-26T00:25:00;94148.78;;;21.40;100.00
6345;BME280;3205;42.666;23.264;2023-06-26T00:27:27;94151.47;;;21.40;100.00
6345;BME280;3205;42.666;23.264;2023-06-26T00:29:54;94150.78;;;21.36;100.00
6345;BME280;3205;42.666;23.264;2023-06-26T00:32:20;94150.78;;;21.36;100.00
6345;BME280;3205;42.666;23.264;2023-06-26T00:34:46;94151.88;;;21.38;100.00
6345;BME280;3205;42.666;23.264;2023-06-26T00:37:12;94148.44;;;21.38;100.00
6345;BME280;3205;42.666;23.264;2023-06-26T00:39:38;94147.31;;;21.35;100.00
6345;BME280;3205;42.666;23.264;2023-06-26T00:42:06;94148.47;;;21.34;100.00
6345;BME280;3205;42.666;23.264;2023-06-26T00:44:32;94147.78;;;21.30;100.00
6345;BME280;3205;42.666;23.264;2023-06-26T00:46:59;94146.28;;;21.26;100.00
6345;BME280;3205;42.666;23.264;2023-06-26T00:49:26;94141.66;;;21.26;100.00
6345;BME280;3205;42.666;23.264;2023-06-26T00:51:53;94133.59;;;21.26;100.00
6345;BME280;3205;42.666;23.264;2023-06-26T00:54:19;94140.16;;;21.25;100.00
6345;BME280;3205;42.666;23.264;2023-06-26T00:56:48;94127.88;;;21.24;100.00
6345;BME280;3205;42.666;23.264;2023-06-26T00:59:14;94131.72;;;21.23;100.00
6345;BME280;3205;42.666;23.264;2023-06-26T01:01:40;94124.47;;;21.20;100.00
6345;BME280;3205;42.666;23.264;2023-06-26T01:04:07;94122.94;;;21.19;100.00
6345;BME280;3205;42.666;23.264;2023-06-26T01:06:33;94123.34;;;21.18;100.00
6345;BME280;3205;42.666;23.264;2023-06-26T01:09:01;94116.84;;;21.15;100.00
6345;BME280;3205;42.666;23.264;2023-06-26T01:11:27;94115.00;;;21.12;100.00
6345;BME280;3205;42.666;23.264;2023-06-26T01:13:54;94107.72;;;21.09;100.00
6345;BME280;3205;42.666;23.264;2023-06-26T01:16:23;94110.41;;;21.09;100.00
6345;BME280;3205;42.666;23.264;2023-06-26T01:18:49;94101.69;;;21.02;100.00
6345;BME280;3205;42.666;23.264;2023-06-26T01:21:18;94101.00;;;20.94;100.00
6345;BME280;3205;42.666;23.264;2023-06-26T01:23:55;94097.25;;;20.89;100.00
6345;BME280;3205;42.666;23.264;2023-06-26T01:26:26;94098.13;;;20.79;100.00
6345;BME280;3205;42.666;23.264;2023-06-26T01:28:56;94099.00;;;20.69;100.00
6345;BME280;3205;42.666;23.264;2023-06-26T01:31:24;94094.47;;;20.62;100.00
6345;BME280;3205;42.666;23.264;2023-06-26T01:33:51;94081.16;;;20.52;100.00
6345;BME280;3205;42.666;23.264;2023-06-26T01:36:18;94086.31;;;20.39;100.00
6345;BME280;3205;42.666;23.264;2023-06-26T01:38:44;94093.97;;;20.41;100.00
6345;BME280;3205;42.666;23.264;2023-06-26T01:41:10;94094.75;;;20.38;100.00
6345;BME280;3205;42.666;23.264;2023-06-26T01:43:43;94090.50;;;20.44;100.00
6345;BME280;3205;42.666;23.264;2023-06-26T01:46:18;94086.56;;;20.48;100.00
6345;BME280;3205;42.666;23.264;2023-06-26T01:48:54;94085.75;;;20.55;100.00
6345;BME280;3205;42.666;23.264;2023-06-26T01:51:27;94085.75;;;20.55;100.00
6345;BME280;3205;42.666;23.264;2023-06-26T01:53:57;94083.47;;;20.53;100.00
6345;BME280;3205;42.666;23.264;2023-06-26T01:56:24;94078.88;;;20.50;100.00
6345;BME280;3205;42.666;23.264;2023-06-26T01:58:54;94080.81;;;20.50;100.00
6345;BME280;3205;42.666;23.264;2023-06-26T02:01:21;94090.41;;;20.51;100.00
6345;BME280;3205;42.666;23.264;2023-06-26T02:03:47;94089.75;;;20.40;100.00
6345;BME280;3205;42.666;23.264;2023-06-26T02:06:13;94081.72;;;20.36;100.00
6345;BME280;3205;42.666;23.264;2023-06-26T02:08:39;94083.56;;;20.46;100.00
6345;BME280;3205;42.666;23.264;2023-06-26T02:11:06;94078.22;;;20.43;100.00
6345;BME280;3205;42.666;23.264;2023-06-26T02:13:32;94081.31;;;20.38;100.00
6345;BME280;3205;42.666;23.264;2023-06-26T02:15:59;94077.22;;;20.30;100.00
6345;BME280;3205;42.666;23.264;2023-06-26T02:18:25;94071.47;;;20.28;100.00
6345;BME280;3205;42.666;23.264;2023-06-26T02:20:51;94070.34;;;20.25;100.00
6345;BME280;3205;42.666;23.264;2023-06-26T02:23:17;94071.63;;;20.14;100.00
6345;BME280;3205;42.666;23.264;2023-06-26T02:25:43;94067.84;;;20.08;100.00
6345;BME280;3205;42.666;23.264;2023-06-26T02:28:09;94070.69;;;19.94;100.00
6345;BME280;3205;42.666;23.264;2023-06-26T02:30:35;94071.81;;;19.93;100.00
6345;BME280;3205;42.666;23.264;2023-06-26T02:33:02;94077.19;;;19.90;100.00
6345;BME280;3205;42.666;23.264;2023-06-26T02:35:28;94071.09;;;19.89;100.00
6345;BME280;3205;42.666;23.264;2023-06-26T02:37:54;94072.69;;;19.83;100.00
6345;BME280;3205;42.666;23.264;2023-06-26T02:40:20;94071.88;;;19.86;100.00
6345;BME280;3205;42.666;23.264;2023-06-26T02:42:46;94076.91;;;19.81;100.00
6345;BME280;3205;42.666;23.264;2023-06-26T02:45:12;94075.00;;;19.81;100.00
6345;BME280;3205;42.666;23.264;2023-06-26T02:47:38;94074.69;;;19.72;100.00
6345;BME280;3205;42.666;23.264;2023-06-26T02:50:07;94080.72;;;19.83;100.00
6345;BME280;3205;42.666;23.264;2023-06-26T02:52:33;94079.94;;;19.83;100.00
6345;BME280;3205;42.666;23.264;2023-06-26T02:54:59;94071.06;;;19.93;100.00
6345;BME280;3205;42.666;23.264;2023-06-26T02:57:25;94072.91;;;19.99;100.00
6345;BME280;3205;42.666;23.264;2023-06-26T02:59:51;94075.91;;;20.08;100.00
6345;BME280;3205;42.666;23.264;2023-06-26T03:02:17;94085.53;;;20.06;100.00
6345;BME280;3205;42.666;23.264;2023-06-26T03:04:43;94077.13;;;20.00;100.00
6345;BME280;3205;42.666;23.264;2023-06-26T03:07:10;94075.59;;;19.99;100.00
6345;BME280;3205;42.666;23.264;2023-06-26T03:09:36;94078.72;;;19.94;100.00
6345;BME280;3205;42.666;23.264;2023-06-26T03:12:03;94075.66;;;19.89;100.00
6345;BME280;3205;42.666;23.264;2023-06-26T03:14:29;94081.81;;;19.89;100.00
6345;BME280;3205;42.666;23.264;2023-06-26T03:16:57;94088.72;;;19.90;100.00
6345;BME280;3205;42.666;23.264;2023-06-26T03:19:24;94079.81;;;20.00;100.00
6345;BME280;3205;42.666;23.264;2023-06-26T03:21:50;94086.72;;;20.01;100.00
6345;BME280;3205;42.666;23.264;2023-06-26T03:24:17;94085.88;;;20.08;100.00
6345;BME280;3205;42.666;23.264;2023-06-26T03:26:43;94091.88;;;20.22;100.00
6345;BME280;3205;42.666;23.264;2023-06-26T03:29:10;94088.41;;;20.21;100.00
6345;BME280;3205;42.666;23.264;2023-06-26T03:31:36;94085.56;;;20.35;100.00
6345;BME280;3205;42.666;23.264;2023-06-26T03:34:02;94102.34;;;20.46;100.00
6345;BME280;3205;42.666;23.264;2023-06-26T03:36:28;94093.75;;;20.58;100.00
6345;BME280;3205;42.666;23.264;2023-06-26T03:38:54;94101.63;;;20.76;100.00
6345;BME280;3205;42.666;23.264;2023-06-26T03:41:23;94107.69;;;20.83;100.00
6345;BME280;3205;42.666;23.264;2023-06-26T03:43:49;94102.91;;;20.97;100.00
6345;BME280;3205;42.666;23.264;2023-06-26T03:46:15;94103.00;;;21.17;100.00
6345;BME280;3205;42.666;23.264;2023-06-26T03:48:41;94113.28;;;21.25;100.00
6345;BME280;3205;42.666;23.264;2023-06-26T03:51:07;94112.41;;;21.32;100.00
6345;BME280;3205;42.666;23.264;2023-06-26T03:53:33;94109.56;;;21.42;100.00
6345;BME280;3205;42.666;23.264;2023-06-26T03:56:00;94115.34;;;21.41;100.00
6345;BME280;3205;42.666;23.264;2023-06-26T03:58:27;94116.19;;;21.34;100.00
6345;BME280;3205;42.666;23.264;2023-06-26T04:00:53;94110.88;;;21.31;100.00
6345;BME280;3205;42.666;23.264;2023-06-26T04:03:20;94111.94;;;21.37;100.00
6345;BME280;3205;42.666;23.264;2023-06-26T04:05:46;94123.78;;;21.43;100.00
6345;BME280;3205;42.666;23.264;2023-06-26T04:08:13;94113.91;;;21.63;100.00
6345;BME280;3205;42.666;23.264;2023-06-26T04:10:39;94120.75;;;22.13;100.00
6345;BME280;3205;42.666;23.264;2023-06-26T04:13:05;94126.72;;;22.46;100.00
6345;BME280;3205;42.666;23.264;2023-06-26T04:15:31;94127.84;;;22.49;100.00
6345;BME280;3205;42.666;23.264;2023-06-26T04:17:58;94133.50;;;22.54;100.00
6345;BME280;3205;42.666;23.264;2023-06-26T04:20:24;94139.94;;;22.60;100.00
6345;BME280;3205;42.666;23.264;2023-06-26T04:22:50;94140.41;;;22.75;100.00
6345;BME280;3205;42.666;23.264;2023-06-26T04:25:16;94148.34;;;23.05;100.00
6345;BME280;3205;42.666;23.264;2023-06-26T04:27:42;94157.41;;;24.00;100.00
6345;BME280;3205;42.666;23.264;2023-06-26T04:30:09;94174.47;;;25.02;100.00
6345;BME280;3205;42.666;23.264;2023-06-26T04:32:36;94191.81;;;25.86;100.00
6345;BME280;3205;42.666;23.264;2023-06-26T04:35:04;94205.63;;;27.08;100.00
6345;BME280;3205;42.666;23.264;2023-06-26T04:37:31;94211.50;;;27.71;100.00
6345;BME280;3205;42.666;23.264;2023-06-26T04:39:57;94199.69;;;27.95;100.00
6345;BME280;3205;42.666;23.264;2023-06-26T04:42:23;94211.50;;;27.71;100.00
6345;BME280;3205;42.666;23.264;2023-06-26T04:44:49;94213.81;;;28.51;100.00
6345;BME280;3205;42.666;23.264;2023-06-26T04:47:15;94212.13;;;29.02;100.00
6345;BME280;3205;42.666;23.264;2023-06-26T04:49:42;94216.34;;;29.12;100.00
6345;BME280;3205;42.666;23.264;2023-06-26T04:52:11;94211.03;;;28.81;100.00
6345;BME280;3205;42.666;23.264;2023-06-26T04:54:38;94211.22;;;29.49;100.00
6345;BME280;3205;42.666;23.264;2023-06-26T04:57:05;94223.13;;;29.70;100.00
6345;BME280;3205;42.666;23.264;2023-06-26T04:59:31;94211.03;;;29.62;100.00
6345;BME280;3205;42.666;23.264;2023-06-26T05:01:57;94212.06;;;29.82;100.00
6345;BME280;3205;42.666;23.264;2023-06-26T05:04:23;94207.81;;;30.31;100.00
6345;BME280;3205;42.666;23.264;2023-06-26T05:06:50;94218.25;;;31.73;100.00
6345;BME280;3205;42.666;23.264;2023-06-26T05:09:16;94221.72;;;32.31;100.00
6345;BME280;3205;42.666;23.264;2023-06-26T05:11:42;94226.25;;;31.91;100.00
6345;BME280;3205;42.666;23.264;2023-06-26T05:14:09;94229.56;;;30.49;100.00
6345;BME280;3205;42.666;23.264;2023-06-26T05:16:35;94219.53;;;29.46;100.00
6345;BME280;3205;42.666;23.264;2023-06-26T05:19:01;94231.06;;;28.57;100.00
6345;BME280;3205;42.666;23.264;2023-06-26T05:21:28;94228.06;;;28.73;100.00
6345;BME280;3205;42.666;23.264;2023-06-26T05:23:56;94222.59;;;30.07;100.00
6345;BME280;3205;42.666;23.264;2023-06-26T05:26:23;94226.84;;;30.49;100.00
6345;BME280;3205;42.666;23.264;2023-06-26T05:28:50;94224.38;;;30.19;100.00
6345;BME280;3205;42.666;23.264;2023-06-26T05:31:17;94227.09;;;29.60;100.00
6345;BME280;3205;42.666;23.264;2023-06-26T05:33:44;94231.44;;;29.04;100.00
6345;BME280;3205;42.666;23.264;2023-06-26T05:36:12;94239.63;;;28.38;100.00
6345;BME280;3205;42.666;23.264;2023-06-26T05:38:39;94236.00;;;27.59;100.00
6345;BME280;3205;42.666;23.264;2023-06-26T05:41:06;94237.66;;;27.01;100.00
6345;BME280;3205;42.666;23.264;2023-06-26T05:43:33;94238.28;;;26.59;100.00
6345;BME280;3205;42.666;23.264;2023-06-26T05:45:59;94233.19;;;26.36;100.00
6345;BME280;3205;42.666;23.264;2023-06-26T05:48:25;94226.06;;;26.29;100.00
6345;BME280;3205;42.666;23.264;2023-06-26T05:50:52;94230.63;;;26.20;100.00
6345;BME280;3205;42.666;23.264;2023-06-26T05:53:19;94229.19;;;26.28;100.00
6345;BME280;3205;42.666;23.264;2023-06-26T05:55:45;94234.41;;;26.47;100.00
6345;BME280;3205;42.666;23.264;2023-06-26T05:58:12;94229.25;;;26.74;100.00
6345;BME280;3205;42.666;23.264;2023-06-26T06:00:40;94230.06;;;27.08;100.00
6345;BME280;3205;42.666;23.264;2023-06-26T06:03:06;94240.16;;;27.29;100.00
6345;BME280;3205;42.666;23.264;2023-06-26T06:05:33;94238.53;;;28.26;100.00
6345;BME280;3205;42.666;23.264;2023-06-26T06:07:59;94242.16;;;29.88;100.00
6345;BME280;3205;42.666;23.264;2023-06-26T06:10:25;94242.34;;;30.34;100.00
6345;BME280;3205;42.666;23.264;2023-06-26T06:12:51;94240.00;;;30.10;100.00
6345;BME280;3205;42.666;23.264;2023-06-26T06:15:20;94232.09;;;29.35;100.00
6345;BME280;3205;42.666;23.264;2023-06-26T06:17:46;94238.25;;;29.08;100.00
6345;BME280;3205;42.666;23.264;2023-06-26T06:20:12;94230.56;;;29.25;100.00
6345;BME280;3205;42.666;23.264;2023-06-26T06:22:38;94238.59;;;29.10;100.00
6345;BME280;3205;42.666;23.264;2023-06-26T06:25:05;94244.31;;;28.85;100.00
6345;BME280;3205;42.666;23.264;2023-06-26T06:27:31;94227.94;;;28.76;100.00
6345;BME280;3205;42.666;23.264;2023-06-26T06:29:57;94228.97;;;28.70;100.00
6345;BME280;3205;42.666;23.264;2023-06-26T06:32:24;94233.63;;;28.52;100.00
6345;BME280;3205;42.666;23.264;2023-06-26T06:34:50;94234.31;;;29.00;100.00
6345;BME280;3205;42.666;23.264;2023-06-26T06:37:16;94232.78;;;29.98;100.00
6345;BME280;3205;42.666;23.264;2023-06-26T06:39:42;94245.78;;;32.42;100.00
6345;BME280;3205;42.666;23.264;2023-06-26T06:42:09;94230.91;;;34.32;91.70
6345;BME280;3205;42.666;23.264;2023-06-26T06:44:37;94239.78;;;36.00;75.56
6345;BME280;3205;42.666;23.264;2023-06-26T06:47:03;94235.97;;;35.70;75.92
6345;BME280;3205;42.666;23.264;2023-06-26T06:49:30;94232.63;;;34.97;78.41
6345;BME280;3205;42.666;23.264;2023-06-26T06:51:56;94232.81;;;36.10;72.83
6345;BME280;3205;42.666;23.264;2023-06-26T06:54:26;94246.19;;;37.44;65.51
6345;BME280;3205;42.666;23.264;2023-06-26T06:56:52;94247.34;;;39.28;53.89
6345;BME280;3205;42.666;23.264;2023-06-26T06:59:18;94241.47;;;40.16;48.64
6345;BME280;3205;42.666;23.264;2023-06-26T07:01:44;94235.44;;;40.49;46.29
6345;BME280;3205;42.666;23.264;2023-06-26T07:04:10;94237.81;;;39.90;47.40
6345;BME280;3205;42.666;23.264;2023-06-26T07:06:37;94235.41;;;39.62;49.29
6345;BME280;3205;42.666;23.264;2023-06-26T07:09:03;94227.53;;;39.00;52.29
6345;BME280;3205;42.666;23.264;2023-06-26T07:11:31;94236.13;;;37.98;54.36
6345;BME280;3205;42.666;23.264;2023-06-26T07:13:57;94229.19;;;38.61;51.27
6345;BME280;3205;42.666;23.264;2023-06-26T07:16:23;94229.38;;;40.01;48.40
6345;BME280;3205;42.666;23.264;2023-06-26T07:18:49;94231.19;;;39.56;46.20
6345;BME280;3205;42.666;23.264;2023-06-26T07:21:16;94238.19;;;38.91;50.49
6345;BME280;3205;42.666;23.264;2023-06-26T07:23:42;94230.97;;;37.84;56.92
6345;BME280;3205;42.666;23.264;2023-06-26T07:26:09;94224.78;;;36.88;61.14
6345;BME280;3205;42.666;23.264;2023-06-26T07:28:35;94223.53;;;36.34;63.33
6345;BME280;3205;42.666;23.264;2023-06-26T07:31:01;94229.53;;;36.11;63.02
6345;BME280;3205;42.666;23.264;2023-06-26T07:33:28;94230.00;;;38.51;53.79
6345;BME280;3205;42.666;23.264;2023-06-26T07:35:54;94231.00;;;40.59;45.69
6345;BME280;3205;42.666;23.264;2023-06-26T07:38:20;94235.81;;;41.28;40.77
6345;BME280;3205;42.666;23.264;2023-06-26T07:40:47;94232.34;;;41.87;40.45
6345;BME280;3205;42.666;23.264;2023-06-26T07:43:13;94241.31;;;43.00;37.43
6345;BME280;3205;42.666;23.264;2023-06-26T07:45:39;94235.28;;;43.72;36.90
6345;BME280;3205;42.666;23.264;2023-06-26T07:48:06;94238.25;;;44.17;33.19
6345;BME280;3205;42.666;23.264;2023-06-26T07:50:32;94235.00;;;44.41;33.70
6345;BME280;3205;42.666;23.264;2023-06-26T07:52:58;94233.34;;;43.25;33.41
6345;BME280;3205;42.666;23.264;2023-06-26T07:55:24;94245.38;;;42.38;35.23
6345;BME280;3205;42.666;23.264;2023-06-26T07:57:52;94235.53;;;42.04;36.15
6345;BME280;3205;42.666;23.264;2023-06-26T08:00:19;94242.13;;;42.47;35.82
6345;BME280;3205;42.666;23.264;2023-06-26T08:02:45;94238.84;;;42.36;36.42
6345;BME280;3205;42.666;23.264;2023-06-26T08:05:11;94233.34;;;43.04;35.93
6345;BME280;3205;42.666;23.264;2023-06-26T08:07:37;94237.28;;;43.57;33.38
6345;BME280;3205;42.666;23.264;2023-06-26T08:10:04;94229.44;;;43.55;32.74
6345;BME280;3205;42.666;23.264;2023-06-26T08:12:30;94238.25;;;41.45;35.54
6345;BME280;3205;42.666;23.264;2023-06-26T08:14:57;94227.66;;;40.92;36.75
6345;BME280;3205;42.666;23.264;2023-06-26T08:17:23;94224.56;;;39.46;40.38
6345;BME280;3205;42.666;23.264;2023-06-26T08:19:49;94220.63;;;37.90;42.93
6345;BME280;3205;42.666;23.264;2023-06-26T08:22:15;94223.78;;;38.45;44.72
6345;BME280;3205;42.666;23.264;2023-06-26T08:24:44;94219.22;;;38.18;45.60
6345;BME280;3205;42.666;23.264;2023-06-26T08:27:10;94232.25;;;37.10;49.18
6345;BME280;3205;42.666;23.264;2023-06-26T08:29:36;94227.66;;;37.34;52.07
6345;BME280;3205;42.666;23.264;2023-06-26T08:32:04;94229.63;;;39.18;42.71
6345;BME280;3205;42.666;23.264;2023-06-26T08:34:30;94223.53;;;40.35;39.73
6345;BME280;3205;42.666;23.264;2023-06-26T08:36:56;94228.06;;;39.65;40.47
6345;BME280;3205;42.666;23.264;2023-06-26T08:39:22;94230.00;;;38.51;43.44
6345;BME280;3205;42.666;23.264;2023-06-26T08:41:48;94223.56;;;38.02;46.50
6345;BME280;3205;42.666;23.264;2023-06-26T08:44:14;94230.56;;;36.57;53.94
6345;BME280;3205;42.666;23.264;2023-06-26T08:46:40;94234.06;;;36.58;54.00
6345;BME280;3205;42.666;23.264;2023-06-26T08:49:14;94230.00;;;35.88;54.93
6345;BME280;3205;42.666;23.264;2023-06-26T08:51:45;94225.06;;;36.52;54.17
6345;BME280;3205;42.666;23.264;2023-06-26T08:54:15;94227.81;;;36.25;52.48
6345;BME280;3205;42.666;23.264;2023-06-26T08:56:44;94224.16;;;35.64;54.68
6345;BME280;3205;42.666;23.264;2023-06-26T08:59:13;94229.22;;;35.82;51.63
6345;BME280;3205;42.666;23.264;2023-06-26T09:01:40;94236.97;;;35.14;56.13
6345;BME280;3205;42.666;23.264;2023-06-26T09:04:06;94219.94;;;34.63;59.39
6345;BME280;3205;42.666;23.264;2023-06-26T09:06:33;94229.06;;;36.18;55.80
6345;BME280;3205;42.666;23.264;2023-06-26T09:08:59;94226.47;;;37.13;52.08
6345;BME280;3205;42.666;23.264;2023-06-26T09:11:25;94226.63;;;38.34;45.97
6345;BME280;3205;42.666;23.264;2023-06-26T09:13:52;94220.91;;;37.86;43.91
6345;BME280;3205;42.666;23.264;2023-06-26T09:16:18;94215.25;;;36.84;48.09
6345;BME280;3205;42.666;23.264;2023-06-26T09:18:51;94219.84;;;35.41;53.02
6345;BME280;3205;42.666;23.264;2023-06-26T09:21:18;94219.69;;;34.30;62.02
6345;BME280;3205;42.666;23.264;2023-06-26T09:23:45;94235.97;;;32.84;74.23
6345;BME280;3205;42.666;23.264;2023-06-26T09:26:14;94221.44;;;32.29;79.07
6345;BME280;3205;42.666;23.264;2023-06-26T09:28:42;94221.09;;;32.07;82.35
6345;BME280;3205;42.666;23.264;2023-06-26T09:31:08;94219.22;;;31.47;91.64
6345;BME280;3205;42.666;23.264;2023-06-26T09:33:36;94215.16;;;32.92;80.58
6345;BME280;3205;42.666;23.264;2023-06-26T09:36:17;94213.47;;;33.34;77.89
6345;BME280;3205;42.666;23.264;2023-06-26T09:38:44;94212.81;;;33.44;74.16
6345;BME280;3205;42.666;23.264;2023-06-26T09:41:10;94218.75;;;33.03;70.19
6345;BME280;3205;42.666;23.264;2023-06-26T09:43:45;94223.41;;;32.29;74.89
6345;BME280;3205;42.666;23.264;2023-06-26T09:46:15;94219.81;;;32.37;77.81
6345;BME280;3205;42.666;23.264;2023-06-26T09:48:41;94215.78;;;33.01;74.66
6345;BME280;3205;42.666;23.264;2023-06-26T09:51:08;94209.75;;;33.17;68.84
6345;BME280;3205;42.666;23.264;2023-06-26T09:53:35;94210.09;;;33.95;61.75
6345;BME280;3205;42.666;23.264;2023-06-26T09:56:05;94214.50;;;33.17;63.18
6345;BME280;3205;42.666;23.264;2023-06-26T09:58:32;94215.13;;;32.23;73.52
6345;BME280;3205;42.666;23.264;2023-06-26T10:00:58;94207.72;;;32.43;81.83
6345;BME280;3205;42.666;23.264;2023-06-26T10:03:24;94210.88;;;34.21;62.94
6345;BME280;3205;42.666;23.264;2023-06-26T10:05:52;94207.31;;;33.64;62.61
6345;BME280;3205;42.666;23.264;2023-06-26T10:08:19;94204.94;;;33.32;74.97
6345;BME280;3205;42.666;23.264;2023-06-26T10:10:46;94197.69;;;34.61;66.83
6345;BME280;3205;42.666;23.264;2023-06-26T10:13:16;94207.72;;;35.06;62.21
6345;BME280;3205;42.666;23.264;2023-06-26T10:15:48;94199.84;;;34.52;62.88
6345;BME280;3205;42.666;23.264;2023-06-26T10:18:17;94197.22;;;34.32;65.16
6345;BME280;3205;42.666;23.264;2023-06-26T10:20:45;94195.94;;;34.27;66.13
6345;BME280;3205;42.666;23.264;2023-06-26T10:23:13;94194.91;;;33.94;63.00
6345;BME280;3205;42.666;23.264;2023-06-26T10:25:44;94192.25;;;33.80;58.35
6345;BME280;3205;42.666;23.264;2023-06-26T10:28:12;94204.63;;;34.20;62.90
6345;BME280;3205;42.666;23.264;2023-06-26T10:30:41;94194.47;;;33.76;58.12
6345;BME280;3205;42.666;23.264;2023-06-26T10:33:09;94199.84;;;32.02;67.29
6345;BME280;3205;42.666;23.264;2023-06-26T10:35:42;94197.44;;;31.38;80.85
6345;BME280;3205;42.666;23.264;2023-06-26T10:38:09;94202.47;;;31.54;84.44
6345;BME280;3205;42.666;23.264;2023-06-26T10:40:43;94195.97;;;30.67;78.51
6345;BME280;3205;42.666;23.264;2023-06-26T10:43:11;94192.44;;;30.75;82.14
6345;BME280;3205;42.666;23.264;2023-06-26T10:45:43;94192.03;;;30.68;79.21
6345;BME280;3205;42.666;23.264;2023-06-26T10:48:10;94188.78;;;31.01;85.51
6345;BME280;3205;42.666;23.264;2023-06-26T10:50:36;94195.84;;;31.46;81.18
6345;BME280;3205;42.666;23.264;2023-06-26T10:53:10;94189.50;;;31.25;81.12
6345;BME280;3205;42.666;23.264;2023-06-26T10:55:43;94194.31;;;31.45;78.74
6345;BME280;3205;42.666;23.264;2023-06-26T10:58:27;94187.22;;;31.62;79.29
6345;BME280;3205;42.666;23.264;2023-06-26T11:01:19;94194.59;;;31.32;78.63
6345;BME280;3205;42.666;23.264;2023-06-26T11:03:48;94185.41;;;31.59;80.83
6345;BME280;3205;42.666;23.264;2023-06-26T11:06:19;94187.59;;;31.83;84.03
6345;BME280;3205;42.666;23.264;2023-06-26T11:08:45;94188.31;;;31.98;83.34
6345;BME280;3205;42.666;23.264;2023-06-26T11:11:13;94191.84;;;32.13;81.30
6345;BME280;3205;42.666;23.264;2023-06-26T11:13:40;94182.00;;;31.49;76.75
6345;BME280;3205;42.666;23.264;2023-06-26T11:16:06;94191.31;;;31.43;77.83
6345;BME280;3205;42.666;23.264;2023-06-26T11:18:33;94187.94;;;31.48;72.18
6345;BME280;3205;42.666;23.264;2023-06-26T11:21:05;94185.13;;;31.04;76.35
6345;BME280;3205;42.666;23.264;2023-06-26T11:23:32;94187.75;;;30.99;82.09
6345;BME280;3205;42.666;23.264;2023-06-26T11:26:14;94173.31;;;31.36;86.50
6345;BME280;3205;42.666;23.264;2023-06-26T11:28:46;94184.28;;;31.13;72.77
6345;BME280;3205;42.666;23.264;2023-06-26T11:31:24;94185.75;;;30.76;82.16
6345;BME280;3205;42.666;23.264;2023-06-26T11:33:50;94180.81;;;30.66;85.59
6345;BME280;3205;42.666;23.264;2023-06-26T11:36:16;94176.34;;;30.54;79.36
6345;BME280;3205;42.666;23.264;2023-06-26T11:38:44;94179.22;;;30.50;82.34
6345;BME280;3205;42.666;23.264;2023-06-26T11:41:17;94186.28;;;30.33;79.81
6345;BME280;3205;42.666;23.264;2023-06-26T11:43:43;94183.13;;;30.26;85.00
6345;BME280;3205;42.666;23.264;2023-06-26T11:46:09;94175.09;;;30.22;84.02
6345;BME280;3205;42.666;23.264;2023-06-26T11:48:35;94178.78;;;30.19;87.76
6345;BME280;3205;42.666;23.264;2023-06-26T11:51:04;94176.59;;;30.32;92.13
6345;BME280;3205;42.666;23.264;2023-06-26T11:53:30;94170.31;;;30.41;91.93
6345;BME280;3205;42.666;23.264;2023-06-26T11:55:56;94174.91;;;30.35;93.89
6345;BME280;3205;42.666;23.264;2023-06-26T11:58:23;94166.84;;;30.40;93.08
6345;BME280;3205;42.666;23.264;2023-06-26T12:00:50;94172.47;;;30.37;88.44
6345;BME280;3205;42.666;23.264;2023-06-26T12:03:16;94172.97;;;30.26;89.07
6345;BME280;3205;42.666;23.264;2023-06-26T12:05:42;94163.50;;;30.13;93.81
6345;BME280;3205;42.666;23.264;2023-06-26T12:08:10;94173.44;;;29.93;90.22
6345;BME280;3205;42.666;23.264;2023-06-26T12:10:37;94161.28;;;29.26;86.29
6345;BME280;3205;42.666;23.264;2023-06-26T12:13:03;94164.72;;;28.72;96.12
6345;BME280;3205;42.666;23.264;2023-06-26T12:15:30;94165.81;;;28.75;97.50
6345;BME280;3205;42.666;23.264;2023-06-26T12:17:56;94162.06;;;28.90;96.14
6345;BME280;3205;42.666;23.264;2023-06-26T12:20:23;94165.06;;;29.10;97.53
6345;BME280;3205;42.666;23.264;2023-06-26T12:22:51;94164.03;;;29.08;95.20
6345;BME280;3205;42.666;23.264;2023-06-26T12:25:22;94170.53;;;28.92;97.45
6345;BME280;3205;42.666;23.264;2023-06-26T12:27:48;94167.47;;;28.99;100.00
6345;BME280;3205;42.666;23.264;2023-06-26T12:30:15;94165.53;;;29.00;100.00
6345;BME280;3205;42.666;23.264;2023-06-26T12:32:44;94162.97;;;28.78;100.00
6345;BME280;3205;42.666;23.264;2023-06-26T12:35:11;94163.66;;;28.61;100.00
6345;BME280;3205;42.666;23.264;2023-06-26T12:37:37;94162.56;;;28.41;100.00
6345;BME280;3205;42.666;23.264;2023-06-26T12:40:16;94164.09;;;28.59;100.00
6345;BME280;3205;42.666;23.264;2023-06-26T12:42:43;94170.66;;;28.80;100.00
6345;BME280;3205;42.666;23.264;2023-06-26T12:45:13;94167.03;;;29.19;100.00
6345;BME280;3205;42.666;23.264;2023-06-26T12:47:41;94165.97;;;29.43;100.00
6345;BME280;3205;42.666;23.264;2023-06-26T12:50:08;94158.03;;;29.63;100.00
6345;BME280;3205;42.666;23.264;2023-06-26T12:52:34;94164.53;;;29.65;98.49
6345;BME280;3205;42.666;23.264;2023-06-26T12:55:01;94167.91;;;29.60;99.53
6345;BME280;3205;42.666;23.264;2023-06-26T12:57:28;94162.94;;;29.41;100.00
6345;BME280;3205;42.666;23.264;2023-06-26T12:59:54;94165.66;;;29.32;100.00
6345;BME280;3205;42.666;23.264;2023-06-26T13:02:20;94157.34;;;28.91;100.00
6345;BME280;3205;42.666;23.264;2023-06-26T13:04:46;94157.50;;;28.87;100.00